Monday, August 20, 2018, 1:15 AM EDT
Back to Local

KFRG, Farmingdale Republic Airport

Location: Farmingdale, NY, United States Lat: 40.733
Local Time: 1:15 AM EDT ( 5:15 GMT) Lon: -73.417
Time Zone: US/Eastern Elev: 82 ft

Show me the last for .
Show Decoded

2018-08-20 00:53 METAR KFRG 200453Z 05006KT 10SM OVC085 19/15 A3009 RMK AO2 SLP188 T01940150
                 402280194 =
2018-08-19 23:53 METAR KFRG 200353Z 06006KT 10SM BKN070 OVC085 20/16 A3009 RMK AO2 SLP188
                 T02000156 =
2018-08-19 22:53 METAR KFRG 200253Z 03003KT 10SM BKN060 OVC080 20/17 A3009 RMK AO2 SLP189
                 T02000172 51013 =
2018-08-19 21:53 METAR KFRG 200153Z 00000KT 10SM FEW060 OVC085 20/17 A3008 RMK AO2 SLP184
                 T02000172 =
2018-08-19 20:53 METAR KFRG 200053Z 07005KT 10SM OVC080 20/17 A3007 RMK AO2 SLP182 T02000172 =
2018-08-19 19:53 METAR KFRG 192353Z 09008KT 10SM OVC060 21/18 A3005 RMK AO2 SLP175 T02060178
                 10228 20206 53015 =
2018-08-19 18:53 METAR KFRG 192253Z 12008KT 10SM OVC055 21/18 A3004 RMK AO2 SLP171 T02110178 =
2018-08-19 17:53 METAR KFRG 192153Z 12007KT 10SM OVC050 22/18 A3002 RMK AO2 SLP165 T02170178 =
2018-08-19 16:53 METAR KFRG 192053Z 06003KT 10SM OVC046 22/17 A3001 RMK AO2 SLP161 T02220172
                 53006 =
2018-08-19 15:53 METAR KFRG 191953Z AUTO 06005KT 10SM OVC043 22/17 A3000 RMK AO2 SLP158 T02220167
                 =
2018-08-19 14:53 METAR KFRG 191853Z 08009KT 040V100 10SM OVC035 22/17 A2999 RMK AO2 SLP156
                 T02220167 =
2018-08-19 14:34 METAR KFRG 191834Z 07011KT 10SM SCT023 OVC034 22/17 A2999 RMK AO2 T02220172 =
2018-08-19 13:53 METAR KFRG 191753Z 05009KT 10SM BKN022 OVC031 22/17 A2999 RMK AO2 SLP155
                 T02220172 10222 20194 50004 =
2018-08-19 12:53 METAR KFRG 191653Z 05012G18KT 10SM OVC016 21/17 A2999 RMK AO2 SLP155 T02060167 =
2018-08-19 11:53 METAR KFRG 191553Z 07012KT 10SM OVC015 21/17 A2999 RMK AO2 SLP154 T02060172 =
2018-08-19 11:36 METAR KFRG 191536Z 07010G19KT 10SM OVC014 21/17 A2999 RMK AO2 T02060172 =
2018-08-19 10:53 METAR KFRG 191453Z 06007G18KT 10SM OVC016 21/18 A2998 RMK AO2 SLP151 T02110178
                 51015 =
2018-08-19 10:22 METAR KFRG 191422Z 05009KT 10SM SCT014 BKN021 OVC028 21/18 A2997 RMK AO2
                 T02060178 =
2018-08-19 09:53 METAR KFRG 191353Z 07010G18KT 10SM BKN014 BKN019 OVC034 20/18 A2997 RMK AO2
                 SLP146 T02000178 =
2018-08-19 08:53 METAR KFRG 191253Z 06009KT 10SM OVC011 20/18 A2995 RMK AO2 SLP141 T02000178 =
2018-08-19 07:53 METAR KFRG 191153Z 05008KT 10SM BKN011 OVC017 19/18 A2993 RMK AO2 SLP136 70055
                 T01940178 10211 20194 53020 =
2018-08-19 07:32 METAR KFRG 191132Z 05010KT 10SM SCT008 OVC014 19/18 A2993 RMK AO2 T01940178 =
2018-08-19 07:22 METAR KFRG 191122Z 05010KT 6SM BR BKN009 OVC016 19/18 A2993 RMK AO2 CIG 007V014
                 T01940183 =
2018-08-19 06:53 METAR KFRG 191053Z 05007G15KT 10SM BKN011 BKN018 OVC024 20/18 A2991 RMK AO2
                 SLP129 T02000183 =
2018-08-19 06:41 METAR KFRG 191041Z AUTO 05010KT 10SM BKN013 OVC021 19/18 A2991 RMK AO2 T01940183
                 =
2018-08-19 05:53 METAR KFRG 190953Z AUTO 05009G17KT 10SM SCT010 OVC016 20/18 A2989 RMK AO2 SLP121
                 T02000183 =
2018-08-19 04:53 METAR KFRG 190853Z AUTO 05010KT 10SM OVC013 21/19 A2987 RMK AO2 SLP115 T02060189
                 51009 =
2018-08-19 03:53 METAR KFRG 190753Z AUTO 04010KT 10SM OVC012 21/19 A2987 RMK AO2 SLP112 T02110194
                 =
2018-08-19 03:23 METAR KFRG 190723Z AUTO 03008KT 10SM OVC014 21/19 A2986 RMK AO2 T02110189 =
2018-08-19 02:53 METAR KFRG 190653Z AUTO 04007KT 10SM OVC016 21/19 A2986 RMK AO2 SLP112 T02110189
                 =
2018-08-19 02:06 METAR KFRG 190606Z AUTO 04008KT 10SM FEW019 BKN025 OVC075 21/19 A2985 RMK AO2
                 T02110189 =
2018-08-19 01:53 METAR KFRG 190553Z AUTO 03008KT 10SM SCT023 OVC075 21/19 A2985 RMK AO2 SLP106
                 60002 T02110189 10233 20211 53003 =

Support USWX by starting your Amazon purchase here.